Latest Coastal Weather Observations for Gabo Island

IDT60701

Issued at 3:05 am EST Friday 18 April 2014 (issued every 10 minutes, with the page automatically refreshed every 10 minutes)

About coastal observations | Map of coastal stations | Coastal observations for TAS | Marine services | Other Formats
Station Details ID: 084016 Name: GABO ISLAND LIGHTHOUSE Lat: -37.57 Lon: 149.92 Height: 15.2 m
Data from the previous 72 hours. | See also: Recent months at Gabo Island
Date/Time
EST
Temp

°C
Wind Pressure Rain
since 9am
mm
Weather Cloud Vis
km
Sea
Height
m
Swell
Dir
 
Speed
knots
Gust
knots
hPa Trend Height
m
Period
s
Dir
18/03:00am 14.2 NW 7 8 1016.3 - 0.0 Fine Mostly clear 50 1 1.0 - SE
18/02:30am 14.1 NW 7 8 1016.6 - 0.0 - - - - - - -
18/02:00am 14.3 WNW 7 9 1016.9 - 0.0 - - - - - - -
18/01:30am 14.5 NW 8 9 1017.2 - 0.0 - - - - - - -
18/01:00am 14.4 NW 8 9 1017.6 - 0.0 - - - - - - -
18/12:30am 14.6 NW 7 9 1017.8 - 0.0 - - - - - - -
18/12:00am 14.8 WNW 8 9 1018.2 - 0.0 - - - - - - -
 
Date/Time
EST
Temp

°C
Wind Pressure Rain
since 9am
mm
Weather Cloud Vis
km
Sea
Height
m
Swell
Dir
 
Speed
knots
Gust
knots
hPa Trend Height
m
Period
s
Dir
17/11:30pm 14.7 WNW 8 9 1018.5 - 0.0 - - - - - - -
17/11:00pm 14.8 NW 8 9 1018.8 - 0.0 - - - - - - -
17/10:30pm 14.9 NW 8 9 1019.0 - 0.0 - - - - - - -
17/10:00pm 14.8 NW 7 8 1019.3 - 0.0 - - - - - - -
17/09:30pm 15.2 WNW 7 8 1019.4 - 0.0 - - - - - - -
17/09:00pm 16.1 WNW 7 8 1019.5 - 0.0 Fine Mostly clear 50 1 1.0 - SE
17/08:30pm 17.0 S 4 6 1019.6 - 0.0 - - - - - - -
17/08:00pm 17.3 SSE 4 6 1019.5 - 0.0 - - - - - - -
17/07:30pm 17.6 SSE 7 9 1019.4 - 0.0 - - - - - - -
17/07:00pm 17.6 SSE 8 11 1019.2 - 0.0 - - - - - - -
17/06:30pm 17.8 SSW 8 10 1019.1 - 0.0 - - - - - - -
17/06:00pm 17.7 S 9 11 1019.1 - 0.0 - - - - - - -
17/05:30pm 17.9 SSW 9 11 1019.2 - 0.0 - - - - - - -
17/05:00pm 18.4 SSW 11 14 1019.3 - 0.0 - - - - - - -
17/04:30pm 18.5 SSW 11 14 1019.3 - 0.0 - - - - - - -
17/04:00pm 18.8 SSW 12 14 1019.4 - 0.0 - - - - - - -
17/03:30pm 18.8 SSW 11 13 1019.5 - 0.0 - - - - - - -
17/03:00pm 19.2 SW 10 13 1019.6 - 0.0 Fine Mostly clear 50 1 1.0 - SE
17/02:30pm 18.7 SSW 12 14 1019.7 - 0.0 - - - - - - -
17/02:00pm 19.3 SW 10 12 1019.8 - 0.0 - - - - - - -
17/01:30pm 19.1 SW 11 13 1019.9 - 0.0 - - - - - - -
17/01:00pm 18.9 WSW 10 13 1020.1 - 0.0 - - - - - - -
17/12:30pm 19.1 WSW 11 14 1020.4 - 0.0 - - - - - - -
17/12:00pm 18.1 WSW 10 13 1020.7 - 0.0 - - - - - - -
17/11:30am 18.3 W 10 12 1021.0 - 0.0 - - - - - - -
17/11:00am 18.3 W 10 13 1021.1 - 0.0 - - - - - - -
17/10:30am 17.9 W 11 13 1021.2 - 0.0 - - - - - - -
17/10:00am 16.2 WNW 8 10 1021.1 - 0.0 - - - - - - -
17/09:30am 16.8 WNW 10 13 1021.1 - 0.0 - - - - - - -
17/09:00am 15.7 WNW 10 13 1021.2 - 0.0 Fine Mostly cloudy 40 1 1.0 - SE
17/08:30am 15.5 W 11 14 1021.1 - 0.0 - - - - - - -
17/08:00am 14.4 WNW 9 12 1020.9 - 0.0 - - - - - - -
17/07:30am 14.8 WNW 10 13 - - 0.0 - - - - - - -
17/07:00am 14.6 W 10 14 1020.2 - 0.0 - - - - - - -
17/06:30am 13.8 WNW 7 9 1019.8 - 0.0 - - - - - - -
17/06:00am 13.7 WNW 9 11 1019.7 - 0.0 - - - - - - -
17/05:30am 13.6 WNW 9 13 1019.6 - 0.0 - - - - - - -
17/05:00am 13.7 WNW 9 11 1019.5 - 0.0 - - - - - - -
17/04:30am 13.7 WNW 8 11 1019.3 - 0.0 - - - - - - -
17/04:00am 13.8 NW 9 11 1019.3 - 0.0 - - - - - - -
17/03:30am 13.9 NW 9 12 1019.1 - 0.0 - - - - - - -
17/03:00am 13.8 NW 9 12 1019.2 - 0.0 Fine Mostly clear 50 1 1.0 - SE
17/02:30am 13.7 NW 9 12 1019.1 - 0.0 - - - - - - -
17/02:00am 14.4 WNW 8 11 1019.3 - 0.0 - - - - - - -
17/01:30am 14.3 WNW 8 10 1019.4 - 0.0 - - - - - - -
17/01:00am 14.3 NW 9 11 1019.6 - 0.0 - - - - - - -
17/12:30am 14.4 NW 9 11 1019.7 - 0.0 - - - - - - -
17/12:00am 14.6 NW 9 12 1019.9 - 0.0 - - - - - - -
 
Date/Time
EST
Temp

°C
Wind Pressure Rain
since 9am
mm
Weather Cloud Vis
km
Sea
Height
m
Swell
Dir
 
Speed
knots
Gust
knots
hPa Trend Height
m
Period
s
Dir
16/11:30pm 14.4 NW 9 11 1020.0 - 0.0 - - - - - - -
16/11:00pm 14.6 NW 9 11 1020.2 - 0.0 - - - - - - -
16/10:30pm 14.6 WNW 9 11 1020.3 - 0.0 - - - - - - -
16/10:00pm 14.9 WNW 8 10 1020.5 - 0.0 - - - - - - -
16/09:30pm 15.5 WNW 7 11 1020.5 - 0.0 - - - - - - -
16/09:00pm 17.0 SSE 5 6 1020.4 - 0.0 Fine Mostly clear 50 1 1.0 - SE
16/08:30pm 17.4 SSE 6 9 1020.3 - 0.0 - - - - - - -
16/08:00pm 17.6 SSE 7 9 1020.1 - 0.0 - - - - - - -
16/07:30pm 17.5 SE 8 11 1019.9 - 0.0 - - - - - - -
16/07:00pm 17.7 SSE 9 12 1019.8 - 0.0 - - - - - - -
16/06:30pm 17.6 S 9 11 1019.8 - 0.0 - - - - - - -
16/06:00pm 17.5 S 9 11 1019.5 - 0.0 - - - - - - -
16/05:30pm 17.6 S 10 12 1019.3 - 0.0 - - - - - - -
16/05:00pm 17.9 SSW 11 14 1019.3 - 0.0 - - - - - - -
16/04:30pm 18.2 SSW 11 13 1019.3 - 0.0 - - - - - - -
16/04:00pm 18.2 SSW 11 13 1019.3 - 0.0 - - - - - - -
16/03:30pm 18.3 SSW 12 14 1019.4 - 0.0 - - - - - - -
16/03:00pm 18.3 SW 11 14 1019.5 - 0.0 Fine Partly cloudy 50 1 1.0 - SE
16/02:30pm 18.4 SW 11 14 1019.5 - 0.0 - - - - - - -
16/02:00pm 18.5 SSW 11 13 1019.6 - 0.0 - - - - - - -
16/01:30pm 18.3 SW 9 11 1019.8 - 0.0 - - - - - - -
16/01:00pm 18.7 WSW 8 10 1019.9 - 0.0 - - - - - - -
16/12:30pm 17.9 WSW 9 11 1020.2 - 0.0 - - - - - - -
16/12:00pm 18.1 W 8 9 1020.5 - 0.0 - - - - - - -
16/11:30am 16.8 W 7 11 1020.8 - 0.0 - - - - - - -
16/11:00am 16.7 W 7 11 1021.2 - 0.0 - - - - - - -
16/10:30am 17.3 W 9 11 1021.4 - 0.0 - - - - - - -
16/10:00am 17.6 WNW 10 14 1021.5 - 0.0 - - - - - - -
16/09:30am 16.5 WNW 12 15 1021.7 - 0.0 - - - - - - -
16/09:00am 15.7 W 13 16 1021.9 - 1.4 Fine Mostly cloudy 40 1 1.0 - SE
16/08:30am 15.2 W 10 14 1021.9 - 1.4 - - - - - - -
16/08:00am 15.1 W 10 13 1021.7 - 1.4 - - - - - - -
16/07:30am 14.2 W 10 14 1021.5 - 1.4 - - - - - - -
16/07:00am 14.4 W 11 13 1021.2 - 1.4 - - - - - - -
16/06:30am 14.0 WNW 9 12 1021.0 - 1.4 - - - - - - -
16/06:00am 14.3 WNW 8 11 1021.0 - 1.4 - - - - - - -
16/05:30am 14.3 WNW 9 11 1020.9 - 1.4 - - - - - - -
16/05:00am 14.4 WNW 10 12 1020.9 - 1.4 - - - - - - -
16/04:30am 14.6 WNW 9 12 1020.9 - 1.4 - - - - - - -
16/04:00am 14.2 WNW 9 11 1021.0 - 1.4 - - - - - - -
16/03:30am 14.5 WNW 9 12 1021.0 - 1.4 - - - - - - -
16/03:00am 14.3 WNW 9 11 1021.0 - 1.4 Fine Mostly cloudy 40 1 1.0 - SE
16/02:30am 14.6 WNW 9 12 1021.2 - 1.4 - - - - - - -
16/02:00am 15.2 WNW 10 12 1021.5 - 1.4 - - - - - - -
16/01:30am 17.2 S 15 19 1021.7 - 1.4 - - - - - - -
16/01:00am 17.1 S 13 17 1022.0 - 1.4 - - - - - - -
16/12:30am 17.1 S 14 17 1022.2 - 1.4 - - - - - - -
16/12:00am 17.3 S 14 18 1022.3 - 1.4 - - - - - - -
 
Date/Time
EST
Temp

°C
Wind Pressure Rain
since 9am
mm
Weather Cloud Vis
km
Sea
Height
m
Swell
Dir
 
Speed
knots
Gust
knots
hPa Trend Height
m
Period
s
Dir
15/11:30pm 17.3 S 13 17 1022.5 - 1.4 - - - - - - -
15/11:00pm 17.5 S 12 15 1022.6 - 1.4 - - - - - - -
15/10:30pm 17.3 S 12 16 1022.8 - 1.4 - - - - - - -
15/10:00pm 17.5 S 14 17 1022.9 - 1.4 - - - - - - -
15/09:30pm 17.5 S 13 17 1022.9 - 1.4 - - - - - - -
15/09:00pm 17.4 S 13 16 1023.0 - 1.4 Fine Partly cloudy 40 1 1.0 - SE
15/08:30pm 17.3 S 15 18 1022.8 - 1.4 - - - - - - -
15/08:00pm 17.3 S 15 17 1022.7 - 1.4 - - - - - - -
15/07:30pm 17.4 S 15 17 1022.8 - 1.4 - - - - - - -
15/07:00pm 17.4 S 12 16 1022.8 - 1.4 - - - - - - -
15/06:30pm 17.2 S 16 19 1022.6 - 1.4 - - - - - - -
15/06:00pm 17.3 SSW 13 17 1022.3 - 1.4 - - - - - - -
15/05:30pm 17.1 S 15 18 1022.1 - 1.4 - - - - - - -
15/05:00pm 17.4 S 14 18 1022.0 - 1.4 - - - - - - -
15/04:30pm 17.5 S 16 19 1021.9 - 1.4 - - - - - - -
15/04:00pm 17.6 S 15 18 1021.8 - 1.4 - - - - - - -
15/03:30pm 18.0 S 16 21 1021.8 - 1.4 - - - - - - -
15/03:00pm 18.0 S 15 18 1021.8 - 1.4 Fine Mostly cloudy 40 1 1.0 - SE
15/02:30pm 18.8 S 17 21 1021.8 - 1.4 - - - - - - -
15/02:00pm 18.9 S 16 19 1021.7 - 1.4 - - - - - - -
15/01:30pm 17.9 S 16 20 1021.7 - 1.4 - - - - - - -
15/01:00pm 18.2 S 18 21 1021.7 - 1.2 - - - - - - -
15/12:30pm 17.9 S 17 21 1021.9 - 1.2 - - - - - - -
15/12:00pm 18.2 S 18 21 1022.4 - 1.2 - - - - - - -
15/11:30am 17.9 S 18 27 1022.6 - 1.2 - - - - - - -
15/11:26am 18.2 S 17 27 1022.6 - 1.2 - - - - - - -
15/11:00am 17.8 S 18 24 1022.7 - 1.2 - - - - - - -
15/10:30am 16.9 S 18 23 1022.7 - 1.2 - - - - - - -
15/10:00am 14.9 W 8 13 1022.9 - 1.2 - - - - - - -
15/09:30am 14.9 W 12 18 1022.8 - 0.6 - - - - - - -
15/09:00am 14.1 WNW 12 15 1023.0 - 9.8 Rain Cloudy 3 1 1.0 - SE
15/08:30am 14.3 WNW 13 18 1022.7 - 8.0 - - - - - - -
15/08:00am 14.3 WNW 13 17 1022.6 - 8.0 - - - - - - -
15/07:30am 13.9 WNW 11 17 1022.3 - 6.8 - - - - - - -
15/07:00am 13.7 W 14 17 1022.3 - 6.6 - - - - - - -
15/06:30am 13.8 W 15 20 1022.0 - 5.8 - - - - - - -
15/06:00am 16.2 SSW 13 22 1021.8 - 4.4 - - - - - - -
15/05:30am 15.5 SSW 15 19 1021.5 - 4.4 - - - - - - -
15/05:00am 14.4 W 17 21 1021.4 - 2.2 - - - - - - -
15/04:30am 14.1 W 16 19 1021.3 - 1.8 - - - - - - -
15/04:00am 14.5 WSW 17 21 1021.2 - 1.8 - - - - - - -
15/03:30am 15.0 WSW 19 23 1021.2 - 1.0 - - - - - - -

Other Formats:

Comma delimited format used in spreadsheet applications
http://www.bom.gov.au/fwo/IDT60701/IDT60701.94933.axf

JavaScript Object Notation format (JSON) in row-major order
http://www.bom.gov.au/fwo/IDT60701/IDT60701.94933.json